• Join FlightAware (Why Join?)
  • Login
  • US Flag 
05:20PM EDT


 

Airport Tracker/Info


-or-


 

Live Flight TrackerFlight Track Log ✈ TAM3904 ✈ 24-Sep-2013 ✈ SBSP / CGH - SBRJ / SDU

Flight Track Log - Related Links

Times and Time Zones

All times are in EDT time to prevent confusion due to time zone crossing. See the TAM3904 flight status page for this flight to view local times or setup timezone preferences in your user account.

Time Position Orientation Groundspeed Altitude Reporting Facility
EDT Latitude Longitude Course Direction KTS MPH feet Rate Location/Type
06:07AM -23.6390 -46.6490 360° North 145 167 3,100  Level FlightAware
06:09AM -23.6105 -46.5045 78° East  Level Estimated
06:11AM -23.4641 -45.8429 78° East  Level Estimated
06:12AM -23.5980 -46.2950 86° East 324 373 10,500  Level FlightAware
06:12AM -23.5770 -46.2370 68° East 359 413 11,900 2,100 Climbing FlightAware
06:13AM -23.5560 -46.1810 68° East 391 450 12,900 2,640 Climbing FlightAware
06:13AM -23.5320 -46.1160 68° East 396 456 14,900 3,060 Climbing FlightAware
06:14AM -23.5070 -46.0480 68° East 405 466 16,600 2,940 Climbing FlightAware
06:15AM -23.4750 -45.9600 68° East 406 467 19,000 2,460 Climbing FlightAware
06:15AM -23.4510 -45.8880 70° East 438 504 20,000 2,400 Climbing FlightAware
06:16AM -23.4340 -45.8140 76° East 427 491 21,900 3,000 Climbing FlightAware
06:16AM -23.4160 -45.7400 75° East 426 490 23,600 2,520 Climbing FlightAware
06:17AM -23.3980 -45.6670 75° East 433 498 24,900 2,280 Climbing FlightAware
06:18AM -23.3800 -45.5930 75° East 435 501 26,300 1,800 Climbing FlightAware
06:18AM -23.3620 -45.5190 75° East 432 497 27,000 600 Climbing FlightAware
06:19AM -23.3440 -45.4440 75° East 434 499 27,000  Level FlightAware
06:19AM -23.3270 -45.3730 75° East 428 493 27,000  Level FlightAware
06:20AM -23.3090 -45.3000 75° East 428 493 27,000  Level FlightAware
06:21AM -23.2910 -45.2260 75° East 428 493 27,000  Level FlightAware
06:21AM -23.2720 -45.1530 74° East 425 489 27,000  Level FlightAware
06:22AM -23.2560 -45.0830 76° East 423 487 27,000  Level FlightAware
06:22AM -23.2390 -45.0080 76° East 422 486 27,000  Level FlightAware
06:23AM -23.2230 -44.9370 76° East 419 482 27,000  Level FlightAware
06:23AM -23.2060 -44.8650 76° East 418 481 27,000 -780 Level FlightAware
06:24AM -23.1910 -44.7950 77° East 430 495 26,100 -2,280 Descending FlightAware
06:25AM -23.1760 -44.7170 78° East 443 510 24,400 -2,520 Descending FlightAware
06:25AM -23.1610 -44.6430 78° East 436 502 23,200 -2,100 Descending FlightAware
06:26AM -23.1440 -44.5570 78° East 426 490 21,800 -2,040 Descending FlightAware
06:26AM -23.1290 -44.4830 78° East 417 480 20,700 -960 Descending FlightAware
06:27AM -23.1160 -44.4170 78° East 417 480 20,700  Level FlightAware
06:28AM -23.1030 -44.3540 77° East 417 480 20,700 -2,580 Level FlightAware
06:28AM -23.0870 -44.2920 74° East 394 453 17,800 -2,460 Descending FlightAware
06:29AM -23.0720 -44.2280 76° East 394 453 17,800  Level FlightAware
06:29AM -23.0580 -44.1690 76° East 394 453 17,800  Level FlightAware
06:30AM -23.0450 -44.1100 77° East 394 453 17,800  Level FlightAware
06:31AM -23.0310 -44.0520 75° East 394 453 17,800  Level FlightAware
06:31AM -23.0180 -43.9930 77° East 394 453 17,800  Level FlightAware
06:32AM -23.0040 -43.9340 76° East 394 453 17,800 -2,760 Level FlightAware
06:33AM -22.9600 -43.7700 83° East 11,100 -3,540 Descending FlightAware
06:34AM -22.9906 -43.8218 83° East  Level Estimated
06:34AM -22.9420 -43.7200 69° East 295 339 10,200  Level FlightAware
06:34AM -22.9240 -43.7010 44° Northeast 294 338 9,700 -1,380 Descending FlightAware
06:35AM -22.9040 -43.6790 45° Northeast 287 330 9,300 -1,380 Descending FlightAware
06:35AM -22.8800 -43.6540 44° Northeast 285 328 8,700 -1,380 Descending FlightAware
06:35AM -22.8710 -43.6440 46° Northeast 285 328 8,500 -1,080 Descending FlightAware
06:36AM -22.8480 -43.6190 45° Northeast 279 321 8,100 -1,080 Descending FlightAware
06:36AM -22.8300 -43.5990 46° Northeast 275 316 7,700 -1,200 Descending FlightAware
06:36AM -22.8120 -43.5800 44° Northeast 272 313 7,300 -1,080 Descending FlightAware
06:37AM -22.7940 -43.5610 44° Northeast 269 310 7,000 -420 Descending FlightAware
06:37AM -22.7720 -43.5380 44° Northeast 267 307 7,000 -420 Level FlightAware
06:37AM -22.7550 -43.5190 46° Northeast 262 302 6,700 -900 Descending FlightAware
06:38AM -22.7390 -43.5020 44° Northeast 262 302 6,400 -1,080 Descending FlightAware
06:38AM -22.7200 -43.4820 44° Northeast 257 296 6,000 -960 Descending FlightAware
06:38AM -22.7170 -43.4770 57° Northeast 257 296 6,000  Level FlightAware
06:38AM -22.7140 -43.4680 70° East 256 295 6,000 -240 Level FlightAware
06:39AM -22.7050 -43.4420 69° East 261 300 5,900  Descending FlightAware
06:39AM -22.6930 -43.4100 68° East 262 302 6,000 120 Climbing FlightAware
06:39AM -22.6840 -43.3870 67° East 262 302 6,000 -180 Level FlightAware
06:40AM -22.6760 -43.3640 69° East 263 303 5,900 -240 Descending FlightAware
06:40AM -22.6740 -43.3500 81° East 269 310 5,900 -1,080 Level FlightAware
06:40AM -22.6780 -43.3150 97° East 271 312 5,300 -1,200 Descending FlightAware
06:41AM -22.6800 -43.2890 95° East 264 304 5,000 -720 Descending FlightAware
06:41AM -22.6820 -43.2690 96° East 258 297 4,900 -900 Descending FlightAware
06:41AM -22.6850 -43.2390 96° East 247 284 4,400 -1,080 Descending FlightAware
06:42AM -22.6910 -43.2080 102° East 246 283 4,000 -1,020 Descending FlightAware
06:42AM -22.6990 -43.1980 131° Southeast 246 283 3,800 -900 Descending FlightAware
06:42AM -22.7080 -43.1920 148° Southeast 238 274 3,700 -420 Descending FlightAware
06:42AM -22.7270 -43.1810 152° Southeast 224 258 3,600 -480 Descending FlightAware
06:43AM -22.7450 -43.1720 155° Southeast 215 247 3,400 -600 Descending FlightAware
06:43AM -22.7550 -43.1710 175° South 206 237 3,300 -1,020 Descending FlightAware
06:43AM -22.7710 -43.1690 173° South 203 234 2,900 -1,200 Descending FlightAware
06:44AM -22.7850 -43.1680 176° South 204 235 2,600 -1,260 Descending FlightAware
06:44AM -22.8170 -43.1670 178° South 182 209 1,900 -1,200 Descending FlightAware
06:44AM -22.8300 -43.1660 176° South 173 199 1,600 -1,380 Descending FlightAware
06:45AM -22.8450 -43.1660 180° South 154 177 1,100 -1,320 Descending FlightAware
06:45AM -22.8580 -43.1650 176° South 142 163 800 -840 Descending FlightAware
06:45AM -22.8730 -43.1650 180° South 122 140 500 -600 Descending FlightAware
06:46AM -22.8860 -43.1640 176° South 122 140 300 -360 Descending FlightAware
06:46AM -22.8920 -43.1640 180° South 121 139 200 -240 Descending FlightAware
06:47AM -22.9120 -43.1630 177° South 72 83 -600 Descending FlightAware